sensor_id;sensor_type;location;lat;lon;timestamp;P1;durP1;ratioP1;P2;durP2;ratioP2
67798;SDS011;54596;43.216;27.904;2023-05-29T00:02:23;15.00;;;9.07;;
67798;SDS011;54596;43.216;27.904;2023-05-29T00:04:48;16.13;;;9.55;;
67798;SDS011;54596;43.216;27.904;2023-05-29T00:07:16;13.57;;;9.27;;
67798;SDS011;54596;43.216;27.904;2023-05-29T00:09:41;15.70;;;9.90;;
67798;SDS011;54596;43.216;27.904;2023-05-29T00:12:07;15.73;;;10.40;;
67798;SDS011;54596;43.216;27.904;2023-05-29T00:14:32;14.70;;;10.13;;
67798;SDS011;54596;43.216;27.904;2023-05-29T00:16:58;16.05;;;10.13;;
67798;SDS011;54596;43.216;27.904;2023-05-29T00:19:23;17.05;;;10.55;;
67798;SDS011;54596;43.216;27.904;2023-05-29T00:21:50;16.70;;;10.75;;
67798;SDS011;54596;43.216;27.904;2023-05-29T00:24:15;15.82;;;10.23;;
67798;SDS011;54596;43.216;27.904;2023-05-29T00:26:41;17.05;;;10.30;;
67798;SDS011;54596;43.216;27.904;2023-05-29T00:29:07;17.60;;;10.68;;
67798;SDS011;54596;43.216;27.904;2023-05-29T00:31:32;16.27;;;11.43;;
67798;SDS011;54596;43.216;27.904;2023-05-29T00:33:58;20.02;;;13.30;;
67798;SDS011;54596;43.216;27.904;2023-05-29T00:36:24;15.68;;;12.57;;
67798;SDS011;54596;43.216;27.904;2023-05-29T00:38:50;19.50;;;15.40;;
67798;SDS011;54596;43.216;27.904;2023-05-29T00:41:15;19.88;;;13.73;;
67798;SDS011;54596;43.216;27.904;2023-05-29T00:43:41;18.63;;;13.10;;
67798;SDS011;54596;43.216;27.904;2023-05-29T00:46:08;19.23;;;13.45;;
67798;SDS011;54596;43.216;27.904;2023-05-29T00:48:35;15.25;;;13.18;;
67798;SDS011;54596;43.216;27.904;2023-05-29T00:51:00;20.30;;;16.30;;
67798;SDS011;54596;43.216;27.904;2023-05-29T00:53:26;18.48;;;14.43;;
67798;SDS011;54596;43.216;27.904;2023-05-29T00:55:52;19.15;;;14.57;;
67798;SDS011;54596;43.216;27.904;2023-05-29T00:58:18;20.02;;;14.95;;
67798;SDS011;54596;43.216;27.904;2023-05-29T01:00:45;19.33;;;14.35;;
67798;SDS011;54596;43.216;27.904;2023-05-29T01:03:10;22.45;;;14.35;;
67798;SDS011;54596;43.216;27.904;2023-05-29T01:05:39;25.35;;;14.75;;
67798;SDS011;54596;43.216;27.904;2023-05-29T01:08:06;17.38;;;15.07;;
67798;SDS011;54596;43.216;27.904;2023-05-29T01:10:32;19.95;;;14.77;;
67798;SDS011;54596;43.216;27.904;2023-05-29T01:13:09;18.27;;;14.57;;
67798;SDS011;54596;43.216;27.904;2023-05-29T01:15:49;21.30;;;14.80;;
67798;SDS011;54596;43.216;27.904;2023-05-29T01:21:05;18.75;;;14.77;;
67798;SDS011;54596;43.216;27.904;2023-05-29T01:23:52;21.60;;;17.80;;
67798;SDS011;54596;43.216;27.904;2023-05-29T01:29:26;22.45;;;17.48;;
67798;SDS011;54596;43.216;27.904;2023-05-29T01:31:55;24.33;;;17.50;;
67798;SDS011;54596;43.216;27.904;2023-05-29T01:34:21;25.67;;;17.58;;
67798;SDS011;54596;43.216;27.904;2023-05-29T01:36:46;24.70;;;18.27;;
67798;SDS011;54596;43.216;27.904;2023-05-29T01:39:12;23.90;;;17.10;;
67798;SDS011;54596;43.216;27.904;2023-05-29T01:41:38;26.77;;;19.00;;
67798;SDS011;54596;43.216;27.904;2023-05-29T01:44:05;25.17;;;18.83;;
67798;SDS011;54596;43.216;27.904;2023-05-29T01:46:37;24.67;;;18.13;;
67798;SDS011;54596;43.216;27.904;2023-05-29T01:49:03;28.65;;;18.85;;
67798;SDS011;54596;43.216;27.904;2023-05-29T01:51:30;27.40;;;21.13;;
67798;SDS011;54596;43.216;27.904;2023-05-29T01:53:56;27.92;;;20.83;;
67798;SDS011;54596;43.216;27.904;2023-05-29T01:56:24;26.67;;;20.33;;
67798;SDS011;54596;43.216;27.904;2023-05-29T01:58:52;29.05;;;22.63;;
67798;SDS011;54596;43.216;27.904;2023-05-29T02:01:19;30.98;;;23.92;;
67798;SDS011;54596;43.216;27.904;2023-05-29T02:03:46;28.45;;;22.02;;
67798;SDS011;54596;43.216;27.904;2023-05-29T02:06:12;28.08;;;21.98;;
67798;SDS011;54596;43.216;27.904;2023-05-29T02:08:37;26.33;;;21.15;;
67798;SDS011;54596;43.216;27.904;2023-05-29T02:11:03;29.13;;;23.13;;
67798;SDS011;54596;43.216;27.904;2023-05-29T02:13:28;28.00;;;23.17;;
67798;SDS011;54596;43.216;27.904;2023-05-29T02:15:54;28.45;;;23.20;;
67798;SDS011;54596;43.216;27.904;2023-05-29T02:18:20;28.75;;;23.00;;
67798;SDS011;54596;43.216;27.904;2023-05-29T02:20:45;29.70;;;22.88;;
67798;SDS011;54596;43.216;27.904;2023-05-29T02:23:11;25.73;;;21.90;;
67798;SDS011;54596;43.216;27.904;2023-05-29T02:25:36;29.13;;;21.65;;
67798;SDS011;54596;43.216;27.904;2023-05-29T02:28:02;25.17;;;21.40;;
67798;SDS011;54596;43.216;27.904;2023-05-29T02:30:28;26.50;;;21.48;;
67798;SDS011;54596;43.216;27.904;2023-05-29T02:32:54;27.40;;;21.45;;
67798;SDS011;54596;43.216;27.904;2023-05-29T02:35:20;27.48;;;21.98;;
67798;SDS011;54596;43.216;27.904;2023-05-29T02:37:47;25.80;;;19.85;;
67798;SDS011;54596;43.216;27.904;2023-05-29T02:40:14;25.27;;;20.13;;
67798;SDS011;54596;43.216;27.904;2023-05-29T02:42:39;26.35;;;18.15;;
67798;SDS011;54596;43.216;27.904;2023-05-29T02:45:05;24.40;;;18.73;;
67798;SDS011;54596;43.216;27.904;2023-05-29T02:47:31;24.15;;;17.85;;
67798;SDS011;54596;43.216;27.904;2023-05-29T02:49:56;22.63;;;18.40;;
67798;SDS011;54596;43.216;27.904;2023-05-29T02:52:21;25.23;;;18.17;;
67798;SDS011;54596;43.216;27.904;2023-05-29T02:54:48;23.50;;;17.90;;
67798;SDS011;54596;43.216;27.904;2023-05-29T02:57:14;22.05;;;17.77;;
67798;SDS011;54596;43.216;27.904;2023-05-29T02:59:39;22.42;;;17.77;;
67798;SDS011;54596;43.216;27.904;2023-05-29T03:02:05;26.85;;;18.30;;
67798;SDS011;54596;43.216;27.904;2023-05-29T03:04:30;23.92;;;16.67;;
67798;SDS011;54596;43.216;27.904;2023-05-29T03:06:56;23.10;;;17.85;;
67798;SDS011;54596;43.216;27.904;2023-05-29T03:09:21;25.90;;;18.88;;
67798;SDS011;54596;43.216;27.904;2023-05-29T03:11:47;25.98;;;17.55;;
67798;SDS011;54596;43.216;27.904;2023-05-29T03:14:14;23.40;;;17.63;;
67798;SDS011;54596;43.216;27.904;2023-05-29T03:16:40;22.08;;;17.90;;
67798;SDS011;54596;43.216;27.904;2023-05-29T03:19:06;24.25;;;19.20;;
67798;SDS011;54596;43.216;27.904;2023-05-29T03:21:32;22.25;;;16.88;;
67798;SDS011;54596;43.216;27.904;2023-05-29T03:23:58;27.08;;;20.83;;
67798;SDS011;54596;43.216;27.904;2023-05-29T03:26:24;26.83;;;16.42;;
67798;SDS011;54596;43.216;27.904;2023-05-29T03:28:50;24.83;;;19.48;;
67798;SDS011;54596;43.216;27.904;2023-05-29T03:31:16;22.02;;;17.67;;
67798;SDS011;54596;43.216;27.904;2023-05-29T03:33:42;23.27;;;15.80;;
67798;SDS011;54596;43.216;27.904;2023-05-29T03:36:09;24.88;;;17.55;;
67798;SDS011;54596;43.216;27.904;2023-05-29T03:38:35;27.38;;;18.25;;
67798;SDS011;54596;43.216;27.904;2023-05-29T03:41:01;23.42;;;15.88;;
67798;SDS011;54596;43.216;27.904;2023-05-29T03:43:26;22.77;;;15.45;;
67798;SDS011;54596;43.216;27.904;2023-05-29T03:45:52;21.77;;;16.35;;
67798;SDS011;54596;43.216;27.904;2023-05-29T03:48:17;20.98;;;15.57;;
67798;SDS011;54596;43.216;27.904;2023-05-29T03:50:44;22.25;;;15.55;;
67798;SDS011;54596;43.216;27.904;2023-05-29T03:53:10;29.25;;;17.65;;
67798;SDS011;54596;43.216;27.904;2023-05-29T03:55:36;19.13;;;14.75;;
67798;SDS011;54596;43.216;27.904;2023-05-29T03:58:02;23.58;;;15.43;;
67798;SDS011;54596;43.216;27.904;2023-05-29T04:00:27;21.65;;;15.02;;
67798;SDS011;54596;43.216;27.904;2023-05-29T04:02:54;21.40;;;15.35;;
67798;SDS011;54596;43.216;27.904;2023-05-29T04:05:20;20.30;;;13.77;;
67798;SDS011;54596;43.216;27.904;2023-05-29T04:07:46;23.73;;;16.77;;
67798;SDS011;54596;43.216;27.904;2023-05-29T04:10:12;19.77;;;13.65;;
67798;SDS011;54596;43.216;27.904;2023-05-29T04:12:37;23.08;;;15.32;;
67798;SDS011;54596;43.216;27.904;2023-05-29T04:15:03;21.10;;;14.05;;
67798;SDS011;54596;43.216;27.904;2023-05-29T04:17:29;23.70;;;14.38;;
67798;SDS011;54596;43.216;27.904;2023-05-29T04:19:54;20.70;;;13.90;;
67798;SDS011;54596;43.216;27.904;2023-05-29T04:22:20;22.15;;;14.90;;
67798;SDS011;54596;43.216;27.904;2023-05-29T04:24:46;26.48;;;17.10;;
67798;SDS011;54596;43.216;27.904;2023-05-29T04:27:11;21.95;;;16.23;;
67798;SDS011;54596;43.216;27.904;2023-05-29T04:29:40;27.58;;;17.92;;
67798;SDS011;54596;43.216;27.904;2023-05-29T04:32:07;32.90;;;19.35;;
67798;SDS011;54596;43.216;27.904;2023-05-29T04:34:36;26.13;;;17.30;;
67798;SDS011;54596;43.216;27.904;2023-05-29T04:37:04;28.42;;;17.67;;
67798;SDS011;54596;43.216;27.904;2023-05-29T04:39:30;29.35;;;18.83;;
67798;SDS011;54596;43.216;27.904;2023-05-29T04:41:55;21.83;;;15.57;;
67798;SDS011;54596;43.216;27.904;2023-05-29T04:44:25;30.02;;;19.30;;
67798;SDS011;54596;43.216;27.904;2023-05-29T04:46:51;32.05;;;22.52;;
67798;SDS011;54596;43.216;27.904;2023-05-29T04:49:17;47.00;;;26.52;;
67798;SDS011;54596;43.216;27.904;2023-05-29T04:51:43;22.20;;;15.00;;
67798;SDS011;54596;43.216;27.904;2023-05-29T04:54:10;23.02;;;13.52;;
67798;SDS011;54596;43.216;27.904;2023-05-29T04:56:36;20.60;;;13.30;;
67798;SDS011;54596;43.216;27.904;2023-05-29T04:59:02;24.30;;;15.57;;
67798;SDS011;54596;43.216;27.904;2023-05-29T05:01:28;24.35;;;16.13;;
67798;SDS011;54596;43.216;27.904;2023-05-29T05:03:55;26.98;;;20.15;;
67798;SDS011;54596;43.216;27.904;2023-05-29T05:06:21;25.33;;;17.33;;
67798;SDS011;54596;43.216;27.904;2023-05-29T05:08:47;24.60;;;18.95;;
67798;SDS011;54596;43.216;27.904;2023-05-29T05:11:12;23.90;;;17.42;;
67798;SDS011;54596;43.216;27.904;2023-05-29T05:13:38;28.60;;;22.50;;
67798;SDS011;54596;43.216;27.904;2023-05-29T05:16:04;23.83;;;17.15;;
67798;SDS011;54596;43.216;27.904;2023-05-29T05:18:30;22.55;;;16.73;;
67798;SDS011;54596;43.216;27.904;2023-05-29T05:20:55;27.50;;;16.58;;
67798;SDS011;54596;43.216;27.904;2023-05-29T05:23:21;30.50;;;17.85;;
67798;SDS011;54596;43.216;27.904;2023-05-29T05:25:46;23.15;;;15.60;;
67798;SDS011;54596;43.216;27.904;2023-05-29T05:28:12;22.73;;;15.38;;
67798;SDS011;54596;43.216;27.904;2023-05-29T05:30:38;25.10;;;16.50;;
67798;SDS011;54596;43.216;27.904;2023-05-29T05:33:03;22.52;;;17.00;;
67798;SDS011;54596;43.216;27.904;2023-05-29T05:35:29;26.05;;;18.15;;
67798;SDS011;54596;43.216;27.904;2023-05-29T05:37:54;23.05;;;15.90;;
67798;SDS011;54596;43.216;27.904;2023-05-29T05:40:23;24.85;;;16.85;;
67798;SDS011;54596;43.216;27.904;2023-05-29T05:42:49;20.88;;;15.45;;
67798;SDS011;54596;43.216;27.904;2023-05-29T05:45:14;25.48;;;15.95;;
67798;SDS011;54596;43.216;27.904;2023-05-29T05:47:40;27.40;;;18.02;;
67798;SDS011;54596;43.216;27.904;2023-05-29T05:50:05;27.02;;;16.55;;
67798;SDS011;54596;43.216;27.904;2023-05-29T05:52:31;25.85;;;18.38;;
67798;SDS011;54596;43.216;27.904;2023-05-29T05:54:58;25.05;;;16.60;;
67798;SDS011;54596;43.216;27.904;2023-05-29T05:57:24;29.38;;;18.80;;
67798;SDS011;54596;43.216;27.904;2023-05-29T05:59:50;24.85;;;16.40;;
67798;SDS011;54596;43.216;27.904;2023-05-29T06:02:16;26.13;;;17.20;;
67798;SDS011;54596;43.216;27.904;2023-05-29T06:04:41;28.55;;;21.05;;
67798;SDS011;54596;43.216;27.904;2023-05-29T06:07:07;32.65;;;18.85;;
67798;SDS011;54596;43.216;27.904;2023-05-29T06:09:32;39.78;;;21.85;;
67798;SDS011;54596;43.216;27.904;2023-05-29T06:11:57;35.10;;;20.40;;
67798;SDS011;54596;43.216;27.904;2023-05-29T06:14:24;39.97;;;26.65;;
67798;SDS011;54596;43.216;27.904;2023-05-29T06:16:49;38.45;;;22.48;;
67798;SDS011;54596;43.216;27.904;2023-05-29T06:19:15;23.08;;;14.50;;
67798;SDS011;54596;43.216;27.904;2023-05-29T06:21:42;40.83;;;19.15;;
67798;SDS011;54596;43.216;27.904;2023-05-29T06:24:08;28.38;;;16.92;;
67798;SDS011;54596;43.216;27.904;2023-05-29T06:26:33;24.20;;;16.60;;
67798;SDS011;54596;43.216;27.904;2023-05-29T06:28:59;30.58;;;18.83;;
67798;SDS011;54596;43.216;27.904;2023-05-29T06:31:25;27.67;;;18.02;;
67798;SDS011;54596;43.216;27.904;2023-05-29T06:33:50;27.88;;;18.10;;
67798;SDS011;54596;43.216;27.904;2023-05-29T06:36:16;22.48;;;14.23;;
67798;SDS011;54596;43.216;27.904;2023-05-29T06:38:47;21.80;;;12.93;;
67798;SDS011;54596;43.216;27.904;2023-05-29T06:41:13;19.98;;;11.30;;
67798;SDS011;54596;43.216;27.904;2023-05-29T06:43:38;17.30;;;10.88;;
67798;SDS011;54596;43.216;27.904;2023-05-29T06:46:04;16.50;;;10.50;;
67798;SDS011;54596;43.216;27.904;2023-05-29T06:48:35;15.68;;;10.68;;
67798;SDS011;54596;43.216;27.904;2023-05-29T06:51:01;17.80;;;11.98;;
67798;SDS011;54596;43.216;27.904;2023-05-29T06:53:34;20.80;;;14.13;;
67798;SDS011;54596;43.216;27.904;2023-05-29T06:56:00;24.30;;;15.10;;
67798;SDS011;54596;43.216;27.904;2023-05-29T06:58:26;22.48;;;15.70;;
67798;SDS011;54596;43.216;27.904;2023-05-29T07:00:51;22.20;;;16.38;;
67798;SDS011;54596;43.216;27.904;2023-05-29T07:03:16;21.33;;;16.67;;
67798;SDS011;54596;43.216;27.904;2023-05-29T07:05:42;24.05;;;16.50;;
67798;SDS011;54596;43.216;27.904;2023-05-29T07:08:07;23.60;;;17.17;;
67798;SDS011;54596;43.216;27.904;2023-05-29T07:10:33;27.00;;;18.52;;
67798;SDS011;54596;43.216;27.904;2023-05-29T07:12:58;23.90;;;18.73;;
67798;SDS011;54596;43.216;27.904;2023-05-29T07:15:24;28.38;;;18.23;;
67798;SDS011;54596;43.216;27.904;2023-05-29T07:17:49;22.15;;;15.35;;
67798;SDS011;54596;43.216;27.904;2023-05-29T07:20:15;21.00;;;15.45;;
67798;SDS011;54596;43.216;27.904;2023-05-29T07:22:40;21.08;;;11.80;;
67798;SDS011;54596;43.216;27.904;2023-05-29T07:25:06;19.52;;;13.75;;
67798;SDS011;54596;43.216;27.904;2023-05-29T07:27:32;21.13;;;12.98;;
67798;SDS011;54596;43.216;27.904;2023-05-29T07:29:57;22.85;;;12.77;;
67798;SDS011;54596;43.216;27.904;2023-05-29T07:32:23;19.80;;;12.55;;
67798;SDS011;54596;43.216;27.904;2023-05-29T07:34:48;17.98;;;11.13;;
67798;SDS011;54596;43.216;27.904;2023-05-29T07:37:15;24.80;;;14.88;;
67798;SDS011;54596;43.216;27.904;2023-05-29T07:39:41;30.02;;;16.35;;
67798;SDS011;54596;43.216;27.904;2023-05-29T07:42:07;18.95;;;12.02;;
67798;SDS011;54596;43.216;27.904;2023-05-29T07:44:33;26.30;;;15.93;;
67798;SDS011;54596;43.216;27.904;2023-05-29T07:46:58;20.60;;;11.70;;
67798;SDS011;54596;43.216;27.904;2023-05-29T07:49:24;18.63;;;11.15;;
67798;SDS011;54596;43.216;27.904;2023-05-29T07:51:49;20.35;;;12.65;;
67798;SDS011;54596;43.216;27.904;2023-05-29T07:54:15;24.65;;;12.75;;
67798;SDS011;54596;43.216;27.904;2023-05-29T07:56:43;16.20;;;10.57;;
67798;SDS011;54596;43.216;27.904;2023-05-29T07:59:09;15.63;;;10.25;;
67798;SDS011;54596;43.216;27.904;2023-05-29T08:01:35;19.80;;;12.63;;
67798;SDS011;54596;43.216;27.904;2023-05-29T08:04:00;25.75;;;18.35;;
67798;SDS011;54596;43.216;27.904;2023-05-29T08:06:26;23.55;;;14.60;;
67798;SDS011;54596;43.216;27.904;2023-05-29T08:08:51;20.73;;;13.93;;
67798;SDS011;54596;43.216;27.904;2023-05-29T08:11:17;21.58;;;12.60;;
67798;SDS011;54596;43.216;27.904;2023-05-29T08:13:43;21.42;;;12.10;;
67798;SDS011;54596;43.216;27.904;2023-05-29T08:16:08;24.48;;;11.93;;
67798;SDS011;54596;43.216;27.904;2023-05-29T08:18:34;25.13;;;12.65;;
67798;SDS011;54596;43.216;27.904;2023-05-29T08:21:00;26.33;;;13.55;;
67798;SDS011;54596;43.216;27.904;2023-05-29T08:23:25;23.92;;;14.07;;
67798;SDS011;54596;43.216;27.904;2023-05-29T08:25:51;28.80;;;14.60;;
67798;SDS011;54596;43.216;27.904;2023-05-29T08:28:16;27.58;;;13.23;;
67798;SDS011;54596;43.216;27.904;2023-05-29T08:30:42;25.30;;;13.95;;
67798;SDS011;54596;43.216;27.904;2023-05-29T08:33:07;26.33;;;14.05;;
67798;SDS011;54596;43.216;27.904;2023-05-29T08:35:33;33.75;;;16.75;;
67798;SDS011;54596;43.216;27.904;2023-05-29T08:37:59;31.23;;;18.95;;
67798;SDS011;54596;43.216;27.904;2023-05-29T08:40:26;31.73;;;17.58;;
67798;SDS011;54596;43.216;27.904;2023-05-29T08:42:58;29.52;;;17.95;;
67798;SDS011;54596;43.216;27.904;2023-05-29T08:45:28;31.90;;;17.15;;
67798;SDS011;54596;43.216;27.904;2023-05-29T08:47:54;27.83;;;15.70;;
67798;SDS011;54596;43.216;27.904;2023-05-29T08:50:23;31.10;;;16.35;;
67798;SDS011;54596;43.216;27.904;2023-05-29T08:52:48;25.83;;;16.77;;
67798;SDS011;54596;43.216;27.904;2023-05-29T08:55:15;24.23;;;15.00;;
67798;SDS011;54596;43.216;27.904;2023-05-29T08:57:40;23.98;;;14.30;;
67798;SDS011;54596;43.216;27.904;2023-05-29T09:00:08;20.88;;;10.88;;
67798;SDS011;54596;43.216;27.904;2023-05-29T09:02:40;23.17;;;11.95;;
67798;SDS011;54596;43.216;27.904;2023-05-29T09:05:06;27.40;;;13.75;;
67798;SDS011;54596;43.216;27.904;2023-05-29T09:07:33;22.00;;;13.70;;
67798;SDS011;54596;43.216;27.904;2023-05-29T09:09:59;23.63;;;16.65;;
67798;SDS011;54596;43.216;27.904;2023-05-29T09:12:25;28.17;;;21.10;;
67798;SDS011;54596;43.216;27.904;2023-05-29T09:14:51;23.63;;;16.35;;
67798;SDS011;54596;43.216;27.904;2023-05-29T09:17:17;20.35;;;13.82;;
67798;SDS011;54596;43.216;27.904;2023-05-29T09:19:42;16.95;;;10.68;;
67798;SDS011;54596;43.216;27.904;2023-05-29T09:22:10;19.20;;;10.95;;
67798;SDS011;54596;43.216;27.904;2023-05-29T09:24:41;17.98;;;11.80;;
67798;SDS011;54596;43.216;27.904;2023-05-29T09:27:08;19.05;;;12.93;;
67798;SDS011;54596;43.216;27.904;2023-05-29T09:32:11;19.43;;;12.20;;
67798;SDS011;54596;43.216;27.904;2023-05-29T09:34:42;16.33;;;11.93;;
67798;SDS011;54596;43.216;27.904;2023-05-29T09:37:08;19.65;;;12.48;;
67798;SDS011;54596;43.216;27.904;2023-05-29T09:42:07;25.90;;;14.38;;
67798;SDS011;54596;43.216;27.904;2023-05-29T09:44:33;21.42;;;14.13;;
67798;SDS011;54596;43.216;27.904;2023-05-29T09:46:59;26.15;;;16.20;;
67798;SDS011;54596;43.216;27.904;2023-05-29T09:49:25;21.05;;;13.98;;
67798;SDS011;54596;43.216;27.904;2023-05-29T09:51:54;17.98;;;12.07;;
67798;SDS011;54596;43.216;27.904;2023-05-29T09:54:20;16.77;;;11.30;;
67798;SDS011;54596;43.216;27.904;2023-05-29T09:56:46;18.30;;;11.25;;
67798;SDS011;54596;43.216;27.904;2023-05-29T09:59:15;18.73;;;14.10;;
67798;SDS011;54596;43.216;27.904;2023-05-29T10:01:43;19.63;;;13.32;;
67798;SDS011;54596;43.216;27.904;2023-05-29T10:04:12;17.35;;;11.50;;
67798;SDS011;54596;43.216;27.904;2023-05-29T10:06:41;19.40;;;14.15;;
67798;SDS011;54596;43.216;27.904;2023-05-29T10:09:12;16.02;;;12.07;;
67798;SDS011;54596;43.216;27.904;2023-05-29T10:11:42;19.10;;;13.27;;
67798;SDS011;54596;43.216;27.904;2023-05-29T10:14:09;19.45;;;13.80;;
67798;SDS011;54596;43.216;27.904;2023-05-29T10:16:40;25.67;;;17.05;;
67798;SDS011;54596;43.216;27.904;2023-05-29T10:19:12;18.90;;;12.77;;
67798;SDS011;54596;43.216;27.904;2023-05-29T10:21:39;23.75;;;18.10;;
67798;SDS011;54596;43.216;27.904;2023-05-29T10:24:06;26.17;;;21.48;;
67798;SDS011;54596;43.216;27.904;2023-05-29T10:26:34;24.10;;;20.33;;
67798;SDS011;54596;43.216;27.904;2023-05-29T10:29:15;23.27;;;19.47;;
67798;SDS011;54596;43.216;27.904;2023-05-29T10:40:10;21.55;;;17.70;;
67798;SDS011;54596;43.216;27.904;2023-05-29T10:42:46;39.15;;;27.75;;
67798;SDS011;54596;43.216;27.904;2023-05-29T10:50:38;24.50;;;21.48;;
67798;SDS011;54596;43.216;27.904;2023-05-29T10:53:06;28.55;;;25.45;;
67798;SDS011;54596;43.216;27.904;2023-05-29T10:55:38;25.38;;;17.98;;
67798;SDS011;54596;43.216;27.904;2023-05-29T10:58:26;27.08;;;22.10;;
67798;SDS011;54596;43.216;27.904;2023-05-29T11:00:51;23.48;;;16.73;;
67798;SDS011;54596;43.216;27.904;2023-05-29T11:03:24;16.27;;;11.30;;
67798;SDS011;54596;43.216;27.904;2023-05-29T11:05:57;17.92;;;13.75;;
67798;SDS011;54596;43.216;27.904;2023-05-29T11:08:39;14.88;;;10.20;;
67798;SDS011;54596;43.216;27.904;2023-05-29T11:11:31;17.27;;;12.05;;
67798;SDS011;54596;43.216;27.904;2023-05-29T11:14:01;19.63;;;13.10;;
67798;SDS011;54596;43.216;27.904;2023-05-29T11:18:58;14.98;;;8.63;;
67798;SDS011;54596;43.216;27.904;2023-05-29T11:23:53;9.80;;;6.72;;
67798;SDS011;54596;43.216;27.904;2023-05-29T11:26:19;10.77;;;7.47;;
67798;SDS011;54596;43.216;27.904;2023-05-29T11:28:47;9.88;;;6.20;;
67798;SDS011;54596;43.216;27.904;2023-05-29T11:31:13;11.00;;;6.68;;
67798;SDS011;54596;43.216;27.904;2023-05-29T11:33:41;12.65;;;6.32;;
67798;SDS011;54596;43.216;27.904;2023-05-29T11:36:16;11.57;;;5.28;;
67798;SDS011;54596;43.216;27.904;2023-05-29T11:38:43;9.23;;;5.15;;
67798;SDS011;54596;43.216;27.904;2023-05-29T11:41:09;10.55;;;5.93;;
67798;SDS011;54596;43.216;27.904;2023-05-29T11:43:34;9.88;;;5.53;;
67798;SDS011;54596;43.216;27.904;2023-05-29T11:46:00;9.80;;;4.82;;
67798;SDS011;54596;43.216;27.904;2023-05-29T11:48:26;10.77;;;4.90;;
67798;SDS011;54596;43.216;27.904;2023-05-29T11:50:52;9.57;;;4.65;;
67798;SDS011;54596;43.216;27.904;2023-05-29T11:53:17;9.13;;;4.95;;
67798;SDS011;54596;43.216;27.904;2023-05-29T11:55:43;9.23;;;4.63;;
67798;SDS011;54596;43.216;27.904;2023-05-29T11:58:09;8.23;;;4.30;;
67798;SDS011;54596;43.216;27.904;2023-05-29T12:00:38;8.93;;;4.15;;
67798;SDS011;54596;43.216;27.904;2023-05-29T12:03:04;7.47;;;4.20;;
67798;SDS011;54596;43.216;27.904;2023-05-29T12:05:31;8.23;;;4.47;;
67798;SDS011;54596;43.216;27.904;2023-05-29T12:08:24;9.55;;;5.10;;
67798;SDS011;54596;43.216;27.904;2023-05-29T12:10:51;10.52;;;4.50;;
67798;SDS011;54596;43.216;27.904;2023-05-29T12:13:20;8.25;;;4.53;;
67798;SDS011;54596;43.216;27.904;2023-05-29T12:15:48;7.90;;;4.30;;
67798;SDS011;54596;43.216;27.904;2023-05-29T12:18:16;7.72;;;4.20;;
67798;SDS011;54596;43.216;27.904;2023-05-29T12:20:41;7.55;;;4.35;;
67798;SDS011;54596;43.216;27.904;2023-05-29T12:23:07;7.65;;;4.30;;
67798;SDS011;54596;43.216;27.904;2023-05-29T12:25:33;9.93;;;4.45;;
67798;SDS011;54596;43.216;27.904;2023-05-29T12:28:02;8.20;;;4.65;;
67798;SDS011;54596;43.216;27.904;2023-05-29T12:30:27;8.75;;;4.78;;
67798;SDS011;54596;43.216;27.904;2023-05-29T12:32:53;9.10;;;4.60;;
67798;SDS011;54596;43.216;27.904;2023-05-29T12:35:19;7.65;;;5.03;;
67798;SDS011;54596;43.216;27.904;2023-05-29T12:38:27;9.65;;;5.05;;
67798;SDS011;54596;43.216;27.904;2023-05-29T12:40:34;10.23;;;5.50;;
67798;SDS011;54596;43.216;27.904;2023-05-29T12:43:02;12.00;;;5.38;;
67798;SDS011;54596;43.216;27.904;2023-05-29T12:45:30;9.18;;;5.13;;
67798;SDS011;54596;43.216;27.904;2023-05-29T12:47:58;12.65;;;4.95;;
67798;SDS011;54596;43.216;27.904;2023-05-29T12:53:00;8.80;;;4.90;;
67798;SDS011;54596;43.216;27.904;2023-05-29T12:55:30;11.18;;;4.90;;
67798;SDS011;54596;43.216;27.904;2023-05-29T12:58:04;12.73;;;6.05;;
67798;SDS011;54596;43.216;27.904;2023-05-29T13:00:30;10.27;;;4.70;;
67798;SDS011;54596;43.216;27.904;2023-05-29T13:02:56;12.75;;;7.38;;
67798;SDS011;54596;43.216;27.904;2023-05-29T13:05:22;13.40;;;6.05;;
67798;SDS011;54596;43.216;27.904;2023-05-29T13:07:51;12.57;;;6.05;;
67798;SDS011;54596;43.216;27.904;2023-05-29T13:10:17;12.90;;;6.35;;
67798;SDS011;54596;43.216;27.904;2023-05-29T13:12:43;12.10;;;6.43;;
67798;SDS011;54596;43.216;27.904;2023-05-29T13:15:10;13.93;;;5.85;;
67798;SDS011;54596;43.216;27.904;2023-05-29T13:17:37;12.25;;;6.00;;
67798;SDS011;54596;43.216;27.904;2023-05-29T13:20:14;10.80;;;5.18;;
67798;SDS011;54596;43.216;27.904;2023-05-29T13:22:41;12.95;;;5.88;;
67798;SDS011;54596;43.216;27.904;2023-05-29T13:25:10;11.63;;;5.95;;
67798;SDS011;54596;43.216;27.904;2023-05-29T13:27:37;10.63;;;5.40;;
67798;SDS011;54596;43.216;27.904;2023-05-29T13:30:05;14.95;;;5.90;;
67798;SDS011;54596;43.216;27.904;2023-05-29T13:32:31;10.50;;;5.10;;
67798;SDS011;54596;43.216;27.904;2023-05-29T13:34:57;11.73;;;5.20;;
67798;SDS011;54596;43.216;27.904;2023-05-29T13:37:22;11.90;;;5.53;;
67798;SDS011;54596;43.216;27.904;2023-05-29T13:39:48;12.00;;;6.00;;
67798;SDS011;54596;43.216;27.904;2023-05-29T13:42:14;10.98;;;5.32;;
67798;SDS011;54596;43.216;27.904;2023-05-29T13:44:40;11.13;;;4.90;;
67798;SDS011;54596;43.216;27.904;2023-05-29T13:47:06;10.02;;;5.50;;
67798;SDS011;54596;43.216;27.904;2023-05-29T13:49:32;9.55;;;5.07;;
67798;SDS011;54596;43.216;27.904;2023-05-29T13:51:59;14.88;;;6.13;;
67798;SDS011;54596;43.216;27.904;2023-05-29T13:54:25;13.32;;;5.32;;
67798;SDS011;54596;43.216;27.904;2023-05-29T13:56:52;11.20;;;5.40;;
67798;SDS011;54596;43.216;27.904;2023-05-29T13:59:17;11.95;;;5.60;;
67798;SDS011;54596;43.216;27.904;2023-05-29T14:01:43;13.13;;;5.80;;
67798;SDS011;54596;43.216;27.904;2023-05-29T14:04:09;10.25;;;5.90;;
67798;SDS011;54596;43.216;27.904;2023-05-29T14:06:35;14.50;;;7.13;;
67798;SDS011;54596;43.216;27.904;2023-05-29T14:09:01;11.65;;;5.90;;
67798;SDS011;54596;43.216;27.904;2023-05-29T14:11:27;10.20;;;6.43;;
67798;SDS011;54596;43.216;27.904;2023-05-29T14:13:53;12.75;;;6.45;;
67798;SDS011;54596;43.216;27.904;2023-05-29T14:16:18;11.13;;;6.55;;
67798;SDS011;54596;43.216;27.904;2023-05-29T14:18:44;11.90;;;6.40;;
67798;SDS011;54596;43.216;27.904;2023-05-29T14:21:09;15.07;;;6.45;;
67798;SDS011;54596;43.216;27.904;2023-05-29T14:23:36;11.85;;;6.38;;
67798;SDS011;54596;43.216;27.904;2023-05-29T14:26:02;13.98;;;6.45;;
67798;SDS011;54596;43.216;27.904;2023-05-29T14:28:27;17.15;;;6.57;;
67798;SDS011;54596;43.216;27.904;2023-05-29T14:30:54;14.18;;;8.55;;
67798;SDS011;54596;43.216;27.904;2023-05-29T14:33:20;14.93;;;6.72;;
67798;SDS011;54596;43.216;27.904;2023-05-29T14:35:45;26.42;;;10.38;;
67798;SDS011;54596;43.216;27.904;2023-05-29T14:38:11;12.23;;;6.28;;
67798;SDS011;54596;43.216;27.904;2023-05-29T14:40:36;22.98;;;9.35;;
67798;SDS011;54596;43.216;27.904;2023-05-29T14:43:03;14.88;;;7.10;;
67798;SDS011;54596;43.216;27.904;2023-05-29T14:45:29;19.08;;;8.90;;